St. Elmo — WDG2405 — position and weather

sailwx.info

Track history (hours):
 
Tides and Currents Weather Stations Pressure Air Temp Water Temp Dewpoint Dewpoint Depression Visibility Wind Speed Wind Dir Waves Ship Positions

St. Elmo

Owner: Marquette Transportation Company Gulf-Inland, LLC, Jefferson, LA. More information available from US FCC via Universal Licensing System and Coast Guard Vessel Documentation Center.

Last reported at 2015-Aug-29 16:12 UTC. Time now 2015-Sep-01 18:09 UTC.
Position N 29°33' W 094°54'.

; draft 3.2 m.

MMSI: 367515330.

Date/timePositionNaut miles runAvg speedWind from/ knotsBaromVisibWave heightAir tempDewpointWater temp
2015-Aug-29 16:12N 29°33' W 094°54'5 7.2
2015-Aug-29 15:33N 29°37' W 094°57'7 6.9
2015-Aug-29 14:32N 29°43' W 095°01'5 3.3
2015-Aug-29 13:09N 29°46' W 095°05'  
2015-Aug-27 07:13N 29°45' W 095°06'0 0.1
2015-Aug-27 02:16N 29°45' W 095°06'2 3.1
2015-Aug-27 01:29N 29°44' W 095°03'5 5.6
2015-Aug-27 00:33N 29°41' W 094°59'7 6.8
2015-Aug-26 23:33N 29°35' W 094°56'  
2015-Aug-22 07:33N 29°34' W 094°55'6 6.5
2015-Aug-22 06:33N 29°39' W 094°58'6 5.8
2015-Aug-22 05:34N 29°44' W 095°02'3 0.6
2015-Aug-22 01:12N 29°46' W 095°05'3 5.5
2015-Aug-22 00:33N 29°44' W 095°01'6 6.4
2015-Aug-21 23:33N 29°38' W 094°58'7 7.1
2015-Aug-21 22:33N 29°32' W 094°54'  
Track history (hours):
 
Tides and Currents Weather Stations Pressure Air Temp Water Temp Dewpoint Dewpoint Depression Visibility Wind Speed Wind Dir Waves Ship Positions

St. Elmo

Owner: Marquette Transportation Company Gulf-Inland, LLC, Jefferson, LA. More information available from US FCC via Universal Licensing System and Coast Guard Vessel Documentation Center.

Last reported at 2015-Aug-29 16:12 UTC. Time now 2015-Sep-01 18:09 UTC.
Position N 29°33' W 094°54'.

; draft 3.2 m.

MMSI: 367515330.

Date/timePositionNaut miles runAvg speedWind from/ knotsBaromVisibWave heightAir tempDewpointWater temp
2015-Aug-29 16:12N 29°33' W 094°54'5 7.2
2015-Aug-29 15:33N 29°37' W 094°57'7 6.9
2015-Aug-29 14:32N 29°43' W 095°01'5 3.3
2015-Aug-29 13:09N 29°46' W 095°05'  
2015-Aug-27 07:13N 29°45' W 095°06'0 0.1
2015-Aug-27 02:16N 29°45' W 095°06'2 3.1
2015-Aug-27 01:29N 29°44' W 095°03'5 5.6
2015-Aug-27 00:33N 29°41' W 094°59'7 6.8
2015-Aug-26 23:33N 29°35' W 094°56'  
2015-Aug-22 07:33N 29°34' W 094°55'6 6.5
2015-Aug-22 06:33N 29°39' W 094°58'6 5.8
2015-Aug-22 05:34N 29°44' W 095°02'3 0.6
2015-Aug-22 01:12N 29°46' W 095°05'3 5.5
2015-Aug-22 00:33N 29°44' W 095°01'6 6.4
2015-Aug-21 23:33N 29°38' W 094°58'7 7.1
2015-Aug-21 22:33N 29°32' W 094°54'  

Dump ship's entire track history